sensor_id;sensor_type;location;lat;lon;timestamp;P1;durP1;ratioP1;P2;durP2;ratioP2
22774;SDS011;11554;51.106;3.684;2023-05-20T00:00:00;20.20;;;10.00;;
22774;SDS011;11554;51.106;3.684;2023-05-20T00:05:00;20.20;;;10.00;;
22774;SDS011;11554;51.106;3.684;2023-05-20T00:10:00;18.80;;;10.20;;
22774;SDS011;11554;51.106;3.684;2023-05-20T00:15:01;18.80;;;10.20;;
22774;SDS011;11554;51.106;3.684;2023-05-20T00:20:00;18.80;;;10.10;;
22774;SDS011;11554;51.106;3.684;2023-05-20T00:25:00;18.80;;;10.10;;
22774;SDS011;11554;51.106;3.684;2023-05-20T00:30:01;17.90;;;9.10;;
22774;SDS011;11554;51.106;3.684;2023-05-20T00:35:01;17.90;;;9.10;;
22774;SDS011;11554;51.106;3.684;2023-05-20T00:40:00;17.30;;;8.60;;
22774;SDS011;11554;51.106;3.684;2023-05-20T00:45:00;17.30;;;8.60;;
22774;SDS011;11554;51.106;3.684;2023-05-20T00:50:00;15.10;;;7.90;;
22774;SDS011;11554;51.106;3.684;2023-05-20T00:55:00;15.10;;;7.90;;
22774;SDS011;11554;51.106;3.684;2023-05-20T01:00:02;15.90;;;6.70;;
22774;SDS011;11554;51.106;3.684;2023-05-20T01:05:00;15.90;;;6.70;;
22774;SDS011;11554;51.106;3.684;2023-05-20T01:10:00;12.00;;;6.10;;
22774;SDS011;11554;51.106;3.684;2023-05-20T01:15:05;12.00;;;6.10;;
22774;SDS011;11554;51.106;3.684;2023-05-20T01:20:00;10.90;;;5.50;;
22774;SDS011;11554;51.106;3.684;2023-05-20T01:25:00;10.90;;;5.50;;
22774;SDS011;11554;51.106;3.684;2023-05-20T01:30:00;13.80;;;6.10;;
22774;SDS011;11554;51.106;3.684;2023-05-20T01:35:00;13.80;;;6.10;;
22774;SDS011;11554;51.106;3.684;2023-05-20T01:40:02;13.10;;;5.70;;
22774;SDS011;11554;51.106;3.684;2023-05-20T01:45:01;13.10;;;5.70;;
22774;SDS011;11554;51.106;3.684;2023-05-20T01:50:00;16.20;;;5.90;;
22774;SDS011;11554;51.106;3.684;2023-05-20T01:55:00;16.20;;;5.90;;
22774;SDS011;11554;51.106;3.684;2023-05-20T02:00:00;12.30;;;5.80;;
22774;SDS011;11554;51.106;3.684;2023-05-20T02:05:00;12.30;;;5.80;;
22774;SDS011;11554;51.106;3.684;2023-05-20T02:10:00;12.90;;;5.40;;
22774;SDS011;11554;51.106;3.684;2023-05-20T02:15:00;12.90;;;5.40;;
22774;SDS011;11554;51.106;3.684;2023-05-20T02:20:00;14.90;;;6.40;;
22774;SDS011;11554;51.106;3.684;2023-05-20T02:25:00;14.90;;;6.40;;
22774;SDS011;11554;51.106;3.684;2023-05-20T02:30:00;13.80;;;5.20;;
22774;SDS011;11554;51.106;3.684;2023-05-20T02:35:00;13.80;;;5.20;;
22774;SDS011;11554;51.106;3.684;2023-05-20T02:40:00;11.60;;;5.40;;
22774;SDS011;11554;51.106;3.684;2023-05-20T02:45:00;11.60;;;5.40;;
22774;SDS011;11554;51.106;3.684;2023-05-20T02:50:00;13.20;;;5.00;;
22774;SDS011;11554;51.106;3.684;2023-05-20T02:55:00;13.20;;;5.00;;
22774;SDS011;11554;51.106;3.684;2023-05-20T03:00:00;10.40;;;5.50;;
22774;SDS011;11554;51.106;3.684;2023-05-20T03:05:00;10.40;;;5.50;;
22774;SDS011;11554;51.106;3.684;2023-05-20T03:10:00;12.70;;;5.50;;
22774;SDS011;11554;51.106;3.684;2023-05-20T03:15:00;12.70;;;5.50;;
22774;SDS011;11554;51.106;3.684;2023-05-20T03:20:00;10.40;;;5.30;;
22774;SDS011;11554;51.106;3.684;2023-05-20T03:25:00;10.40;;;5.30;;
22774;SDS011;11554;51.106;3.684;2023-05-20T03:30:00;12.30;;;5.40;;
22774;SDS011;11554;51.106;3.684;2023-05-20T03:35:00;12.30;;;5.40;;
22774;SDS011;11554;51.106;3.684;2023-05-20T03:40:00;11.50;;;5.80;;
22774;SDS011;11554;51.106;3.684;2023-05-20T03:45:00;11.50;;;5.80;;
22774;SDS011;11554;51.106;3.684;2023-05-20T03:50:00;9.60;;;4.90;;
22774;SDS011;11554;51.106;3.684;2023-05-20T03:55:00;9.60;;;4.90;;
22774;SDS011;11554;51.106;3.684;2023-05-20T04:00:00;13.90;;;5.90;;
22774;SDS011;11554;51.106;3.684;2023-05-20T04:05:00;13.90;;;5.90;;
22774;SDS011;11554;51.106;3.684;2023-05-20T04:10:00;11.90;;;5.50;;
22774;SDS011;11554;51.106;3.684;2023-05-20T04:15:00;11.90;;;5.50;;
22774;SDS011;11554;51.106;3.684;2023-05-20T04:20:00;11.40;;;5.40;;
22774;SDS011;11554;51.106;3.684;2023-05-20T04:25:00;11.40;;;5.40;;
22774;SDS011;11554;51.106;3.684;2023-05-20T04:30:00;13.80;;;5.80;;
22774;SDS011;11554;51.106;3.684;2023-05-20T04:35:00;13.80;;;5.80;;
22774;SDS011;11554;51.106;3.684;2023-05-20T04:40:00;11.50;;;5.30;;
22774;SDS011;11554;51.106;3.684;2023-05-20T04:45:00;11.50;;;5.30;;
22774;SDS011;11554;51.106;3.684;2023-05-20T04:50:00;13.30;;;5.70;;
22774;SDS011;11554;51.106;3.684;2023-05-20T04:55:00;13.30;;;5.70;;
22774;SDS011;11554;51.106;3.684;2023-05-20T05:00:00;10.40;;;5.70;;
22774;SDS011;11554;51.106;3.684;2023-05-20T05:05:00;10.40;;;5.70;;
22774;SDS011;11554;51.106;3.684;2023-05-20T05:10:00;10.20;;;5.30;;
22774;SDS011;11554;51.106;3.684;2023-05-20T05:15:00;10.20;;;5.30;;
22774;SDS011;11554;51.106;3.684;2023-05-20T05:20:00;12.30;;;5.70;;
22774;SDS011;11554;51.106;3.684;2023-05-20T05:25:00;12.30;;;5.70;;
22774;SDS011;11554;51.106;3.684;2023-05-20T05:30:00;12.90;;;5.80;;
22774;SDS011;11554;51.106;3.684;2023-05-20T05:35:00;12.90;;;5.80;;
22774;SDS011;11554;51.106;3.684;2023-05-20T05:40:00;12.00;;;5.80;;
22774;SDS011;11554;51.106;3.684;2023-05-20T05:45:00;12.00;;;5.80;;
22774;SDS011;11554;51.106;3.684;2023-05-20T05:50:00;10.30;;;5.30;;
22774;SDS011;11554;51.106;3.684;2023-05-20T05:55:01;10.30;;;5.30;;
22774;SDS011;11554;51.106;3.684;2023-05-20T06:00:00;10.80;;;5.30;;
22774;SDS011;11554;51.106;3.684;2023-05-20T06:05:00;10.80;;;5.30;;
22774;SDS011;11554;51.106;3.684;2023-05-20T06:10:00;10.50;;;5.20;;
22774;SDS011;11554;51.106;3.684;2023-05-20T06:15:00;10.50;;;5.20;;
22774;SDS011;11554;51.106;3.684;2023-05-20T06:20:00;11.20;;;6.00;;
22774;SDS011;11554;51.106;3.684;2023-05-20T06:25:00;11.20;;;6.00;;
22774;SDS011;11554;51.106;3.684;2023-05-20T06:30:00;10.50;;;5.00;;
22774;SDS011;11554;51.106;3.684;2023-05-20T06:35:00;10.50;;;5.00;;
22774;SDS011;11554;51.106;3.684;2023-05-20T06:40:00;11.30;;;5.10;;
22774;SDS011;11554;51.106;3.684;2023-05-20T06:45:00;11.30;;;5.10;;
22774;SDS011;11554;51.106;3.684;2023-05-20T06:50:00;9.20;;;4.60;;
22774;SDS011;11554;51.106;3.684;2023-05-20T06:55:00;9.20;;;4.60;;
22774;SDS011;11554;51.106;3.684;2023-05-20T07:00:00;8.40;;;4.60;;
22774;SDS011;11554;51.106;3.684;2023-05-20T07:05:00;8.40;;;4.60;;
22774;SDS011;11554;51.106;3.684;2023-05-20T07:10:00;9.90;;;4.30;;
22774;SDS011;11554;51.106;3.684;2023-05-20T07:15:00;9.90;;;4.30;;
22774;SDS011;11554;51.106;3.684;2023-05-20T07:20:00;8.40;;;4.20;;
22774;SDS011;11554;51.106;3.684;2023-05-20T07:25:00;8.40;;;4.20;;
22774;SDS011;11554;51.106;3.684;2023-05-20T07:30:00;7.50;;;4.00;;
22774;SDS011;11554;51.106;3.684;2023-05-20T07:35:00;7.50;;;4.00;;
22774;SDS011;11554;51.106;3.684;2023-05-20T07:40:00;7.70;;;3.90;;
22774;SDS011;11554;51.106;3.684;2023-05-20T07:45:00;7.70;;;3.90;;
22774;SDS011;11554;51.106;3.684;2023-05-20T07:50:00;8.20;;;4.20;;
22774;SDS011;11554;51.106;3.684;2023-05-20T07:55:00;8.20;;;4.20;;
22774;SDS011;11554;51.106;3.684;2023-05-20T08:00:00;8.20;;;4.10;;
22774;SDS011;11554;51.106;3.684;2023-05-20T08:05:00;8.20;;;4.10;;
22774;SDS011;11554;51.106;3.684;2023-05-20T08:10:00;7.80;;;4.20;;
22774;SDS011;11554;51.106;3.684;2023-05-20T08:15:00;7.80;;;4.20;;
22774;SDS011;11554;51.106;3.684;2023-05-20T08:20:00;9.50;;;4.30;;
22774;SDS011;11554;51.106;3.684;2023-05-20T08:25:00;9.50;;;4.30;;
22774;SDS011;11554;51.106;3.684;2023-05-20T08:30:00;8.00;;;4.30;;
22774;SDS011;11554;51.106;3.684;2023-05-20T08:35:00;8.00;;;4.30;;
22774;SDS011;11554;51.106;3.684;2023-05-20T08:40:00;9.20;;;4.30;;
22774;SDS011;11554;51.106;3.684;2023-05-20T08:45:00;9.20;;;4.30;;
22774;SDS011;11554;51.106;3.684;2023-05-20T08:50:01;8.50;;;4.00;;
22774;SDS011;11554;51.106;3.684;2023-05-20T08:55:01;8.50;;;4.00;;
22774;SDS011;11554;51.106;3.684;2023-05-20T09:00:00;7.60;;;4.00;;
22774;SDS011;11554;51.106;3.684;2023-05-20T09:05:00;7.60;;;4.00;;
22774;SDS011;11554;51.106;3.684;2023-05-20T09:10:00;8.20;;;3.90;;
22774;SDS011;11554;51.106;3.684;2023-05-20T09:15:00;8.20;;;3.90;;
22774;SDS011;11554;51.106;3.684;2023-05-20T09:20:00;6.60;;;4.10;;
22774;SDS011;11554;51.106;3.684;2023-05-20T09:25:01;6.60;;;4.10;;
22774;SDS011;11554;51.106;3.684;2023-05-20T09:30:00;6.70;;;3.80;;
22774;SDS011;11554;51.106;3.684;2023-05-20T09:35:00;6.70;;;3.80;;
22774;SDS011;11554;51.106;3.684;2023-05-20T09:40:03;9.80;;;3.60;;
22774;SDS011;11554;51.106;3.684;2023-05-20T09:45:01;9.80;;;3.60;;
22774;SDS011;11554;51.106;3.684;2023-05-20T09:50:00;6.10;;;3.60;;
22774;SDS011;11554;51.106;3.684;2023-05-20T09:55:01;6.10;;;3.60;;
22774;SDS011;11554;51.106;3.684;2023-05-20T10:00:00;6.50;;;3.80;;
22774;SDS011;11554;51.106;3.684;2023-05-20T10:05:03;6.50;;;3.80;;
22774;SDS011;11554;51.106;3.684;2023-05-20T10:10:11;7.50;;;3.20;;
22774;SDS011;11554;51.106;3.684;2023-05-20T10:15:09;7.50;;;3.20;;
22774;SDS011;11554;51.106;3.684;2023-05-20T10:20:00;6.90;;;3.30;;
22774;SDS011;11554;51.106;3.684;2023-05-20T10:25:04;6.90;;;3.30;;
22774;SDS011;11554;51.106;3.684;2023-05-20T10:30:00;5.30;;;3.10;;
22774;SDS011;11554;51.106;3.684;2023-05-20T10:35:02;5.30;;;3.10;;
22774;SDS011;11554;51.106;3.684;2023-05-20T10:40:09;8.20;;;3.60;;
22774;SDS011;11554;51.106;3.684;2023-05-20T10:45:00;8.20;;;3.60;;
22774;SDS011;11554;51.106;3.684;2023-05-20T10:50:00;6.80;;;2.90;;
22774;SDS011;11554;51.106;3.684;2023-05-20T10:55:00;6.80;;;2.90;;
22774;SDS011;11554;51.106;3.684;2023-05-20T11:00:00;6.70;;;3.00;;
22774;SDS011;11554;51.106;3.684;2023-05-20T11:05:01;6.70;;;3.00;;
22774;SDS011;11554;51.106;3.684;2023-05-20T11:10:00;7.80;;;3.30;;
22774;SDS011;11554;51.106;3.684;2023-05-20T11:15:00;7.80;;;3.30;;
22774;SDS011;11554;51.106;3.684;2023-05-20T11:20:00;7.50;;;2.70;;
22774;SDS011;11554;51.106;3.684;2023-05-20T11:25:03;7.50;;;2.70;;
22774;SDS011;11554;51.106;3.684;2023-05-20T11:30:00;6.30;;;2.70;;
22774;SDS011;11554;51.106;3.684;2023-05-20T11:35:00;6.30;;;2.70;;
22774;SDS011;11554;51.106;3.684;2023-05-20T11:40:02;5.10;;;2.30;;
22774;SDS011;11554;51.106;3.684;2023-05-20T11:45:00;5.10;;;2.30;;
22774;SDS011;11554;51.106;3.684;2023-05-20T11:50:00;8.10;;;2.30;;
22774;SDS011;11554;51.106;3.684;2023-05-20T11:55:00;8.10;;;2.30;;
22774;SDS011;11554;51.106;3.684;2023-05-20T12:00:00;6.50;;;2.30;;
22774;SDS011;11554;51.106;3.684;2023-05-20T12:05:00;6.50;;;2.30;;
22774;SDS011;11554;51.106;3.684;2023-05-20T12:10:00;6.00;;;2.00;;
22774;SDS011;11554;51.106;3.684;2023-05-20T12:15:00;6.00;;;2.00;;
22774;SDS011;11554;51.106;3.684;2023-05-20T12:20:00;7.90;;;2.50;;
22774;SDS011;11554;51.106;3.684;2023-05-20T12:25:00;7.90;;;2.50;;
22774;SDS011;11554;51.106;3.684;2023-05-20T12:30:00;6.60;;;2.50;;
22774;SDS011;11554;51.106;3.684;2023-05-20T12:35:00;6.60;;;2.50;;
22774;SDS011;11554;51.106;3.684;2023-05-20T12:40:00;6.40;;;2.50;;
22774;SDS011;11554;51.106;3.684;2023-05-20T12:45:00;6.40;;;2.50;;
22774;SDS011;11554;51.106;3.684;2023-05-20T12:50:01;7.10;;;2.80;;
22774;SDS011;11554;51.106;3.684;2023-05-20T12:55:00;7.10;;;2.80;;
22774;SDS011;11554;51.106;3.684;2023-05-20T13:00:00;6.80;;;2.10;;
22774;SDS011;11554;51.106;3.684;2023-05-20T13:05:00;6.80;;;2.10;;
22774;SDS011;11554;51.106;3.684;2023-05-20T13:10:00;4.90;;;2.10;;
22774;SDS011;11554;51.106;3.684;2023-05-20T13:15:00;4.90;;;2.10;;
22774;SDS011;11554;51.106;3.684;2023-05-20T13:20:00;4.80;;;1.90;;
22774;SDS011;11554;51.106;3.684;2023-05-20T13:25:00;4.80;;;1.90;;
22774;SDS011;11554;51.106;3.684;2023-05-20T13:30:00;3.50;;;2.10;;
22774;SDS011;11554;51.106;3.684;2023-05-20T13:35:00;3.50;;;2.10;;
22774;SDS011;11554;51.106;3.684;2023-05-20T13:40:00;5.00;;;2.10;;
22774;SDS011;11554;51.106;3.684;2023-05-20T13:45:00;5.00;;;2.10;;
22774;SDS011;11554;51.106;3.684;2023-05-20T13:50:00;5.70;;;2.00;;
22774;SDS011;11554;51.106;3.684;2023-05-20T13:55:00;5.70;;;2.00;;
22774;SDS011;11554;51.106;3.684;2023-05-20T14:00:00;5.60;;;2.20;;
22774;SDS011;11554;51.106;3.684;2023-05-20T14:05:00;5.60;;;2.20;;
22774;SDS011;11554;51.106;3.684;2023-05-20T14:10:00;4.30;;;2.20;;
22774;SDS011;11554;51.106;3.684;2023-05-20T14:15:00;4.30;;;2.20;;
22774;SDS011;11554;51.106;3.684;2023-05-20T14:20:00;4.50;;;2.20;;
22774;SDS011;11554;51.106;3.684;2023-05-20T14:25:00;4.50;;;2.20;;
22774;SDS011;11554;51.106;3.684;2023-05-20T14:30:00;4.20;;;2.30;;
22774;SDS011;11554;51.106;3.684;2023-05-20T14:35:00;4.20;;;2.30;;
22774;SDS011;11554;51.106;3.684;2023-05-20T14:40:00;3.20;;;2.10;;
22774;SDS011;11554;51.106;3.684;2023-05-20T14:45:00;3.20;;;2.10;;
22774;SDS011;11554;51.106;3.684;2023-05-20T14:50:00;5.90;;;2.30;;
22774;SDS011;11554;51.106;3.684;2023-05-20T14:55:00;5.90;;;2.30;;
22774;SDS011;11554;51.106;3.684;2023-05-20T15:00:00;5.20;;;2.20;;
22774;SDS011;11554;51.106;3.684;2023-05-20T15:05:00;5.20;;;2.20;;
22774;SDS011;11554;51.106;3.684;2023-05-20T15:10:00;5.00;;;2.30;;
22774;SDS011;11554;51.106;3.684;2023-05-20T15:15:00;5.00;;;2.30;;
22774;SDS011;11554;51.106;3.684;2023-05-20T15:20:00;4.00;;;2.00;;
22774;SDS011;11554;51.106;3.684;2023-05-20T15:25:00;4.00;;;2.00;;
22774;SDS011;11554;51.106;3.684;2023-05-20T15:30:00;4.80;;;2.40;;
22774;SDS011;11554;51.106;3.684;2023-05-20T15:35:01;4.80;;;2.40;;
22774;SDS011;11554;51.106;3.684;2023-05-20T15:40:00;4.10;;;2.30;;
22774;SDS011;11554;51.106;3.684;2023-05-20T15:45:00;4.10;;;2.30;;
22774;SDS011;11554;51.106;3.684;2023-05-20T15:50:00;4.60;;;2.50;;
22774;SDS011;11554;51.106;3.684;2023-05-20T15:55:00;4.60;;;2.50;;
22774;SDS011;11554;51.106;3.684;2023-05-20T16:00:00;5.10;;;2.50;;
22774;SDS011;11554;51.106;3.684;2023-05-20T16:05:01;5.10;;;2.50;;
22774;SDS011;11554;51.106;3.684;2023-05-20T16:10:00;6.00;;;2.60;;
22774;SDS011;11554;51.106;3.684;2023-05-20T16:15:00;6.00;;;2.60;;
22774;SDS011;11554;51.106;3.684;2023-05-20T16:20:00;5.20;;;2.50;;
22774;SDS011;11554;51.106;3.684;2023-05-20T16:25:01;5.20;;;2.50;;
22774;SDS011;11554;51.106;3.684;2023-05-20T16:30:00;4.80;;;2.30;;
22774;SDS011;11554;51.106;3.684;2023-05-20T16:35:00;4.80;;;2.30;;
22774;SDS011;11554;51.106;3.684;2023-05-20T16:40:00;4.60;;;2.80;;
22774;SDS011;11554;51.106;3.684;2023-05-20T16:45:00;4.60;;;2.80;;
22774;SDS011;11554;51.106;3.684;2023-05-20T16:50:00;4.80;;;2.40;;
22774;SDS011;11554;51.106;3.684;2023-05-20T16:55:00;4.80;;;2.40;;
22774;SDS011;11554;51.106;3.684;2023-05-20T17:00:00;5.20;;;2.40;;
22774;SDS011;11554;51.106;3.684;2023-05-20T17:05:00;5.20;;;2.40;;
22774;SDS011;11554;51.106;3.684;2023-05-20T17:10:00;5.70;;;2.40;;
22774;SDS011;11554;51.106;3.684;2023-05-20T17:15:00;5.70;;;2.40;;
22774;SDS011;11554;51.106;3.684;2023-05-20T17:20:00;8.20;;;2.40;;
22774;SDS011;11554;51.106;3.684;2023-05-20T17:25:00;8.20;;;2.40;;
22774;SDS011;11554;51.106;3.684;2023-05-20T17:30:00;4.70;;;2.00;;
22774;SDS011;11554;51.106;3.684;2023-05-20T17:35:00;4.70;;;2.00;;
22774;SDS011;11554;51.106;3.684;2023-05-20T17:40:00;3.50;;;2.20;;
22774;SDS011;11554;51.106;3.684;2023-05-20T17:45:00;3.50;;;2.20;;
22774;SDS011;11554;51.106;3.684;2023-05-20T17:50:00;5.00;;;2.30;;
22774;SDS011;11554;51.106;3.684;2023-05-20T17:55:00;5.00;;;2.30;;
22774;SDS011;11554;51.106;3.684;2023-05-20T18:00:00;4.30;;;2.00;;
22774;SDS011;11554;51.106;3.684;2023-05-20T18:05:00;4.30;;;2.00;;
22774;SDS011;11554;51.106;3.684;2023-05-20T18:10:00;3.20;;;1.90;;
22774;SDS011;11554;51.106;3.684;2023-05-20T18:15:00;3.20;;;1.90;;
22774;SDS011;11554;51.106;3.684;2023-05-20T18:20:00;8.20;;;3.10;;
22774;SDS011;11554;51.106;3.684;2023-05-20T18:25:00;8.20;;;3.10;;
22774;SDS011;11554;51.106;3.684;2023-05-20T18:30:00;10.90;;;2.50;;
22774;SDS011;11554;51.106;3.684;2023-05-20T18:35:00;10.90;;;2.50;;
22774;SDS011;11554;51.106;3.684;2023-05-20T18:40:00;8.60;;;2.80;;
22774;SDS011;11554;51.106;3.684;2023-05-20T18:45:00;8.60;;;2.80;;
22774;SDS011;11554;51.106;3.684;2023-05-20T18:50:00;11.00;;;2.80;;
22774;SDS011;11554;51.106;3.684;2023-05-20T18:55:00;11.00;;;2.80;;
22774;SDS011;11554;51.106;3.684;2023-05-20T19:00:00;8.60;;;2.70;;
22774;SDS011;11554;51.106;3.684;2023-05-20T19:05:00;8.60;;;2.70;;
22774;SDS011;11554;51.106;3.684;2023-05-20T19:10:01;7.60;;;2.70;;
22774;SDS011;11554;51.106;3.684;2023-05-20T19:15:00;7.60;;;2.70;;
22774;SDS011;11554;51.106;3.684;2023-05-20T19:20:00;8.80;;;2.80;;
22774;SDS011;11554;51.106;3.684;2023-05-20T19:25:00;8.80;;;2.80;;
22774;SDS011;11554;51.106;3.684;2023-05-20T19:30:00;8.10;;;2.80;;
22774;SDS011;11554;51.106;3.684;2023-05-20T19:35:00;8.10;;;2.80;;
22774;SDS011;11554;51.106;3.684;2023-05-20T19:40:00;7.10;;;2.50;;
22774;SDS011;11554;51.106;3.684;2023-05-20T19:45:00;7.10;;;2.50;;
22774;SDS011;11554;51.106;3.684;2023-05-20T19:50:00;9.20;;;3.10;;
22774;SDS011;11554;51.106;3.684;2023-05-20T19:55:00;9.20;;;3.10;;
22774;SDS011;11554;51.106;3.684;2023-05-20T20:00:00;12.10;;;3.50;;
22774;SDS011;11554;51.106;3.684;2023-05-20T20:05:00;12.10;;;3.50;;
22774;SDS011;11554;51.106;3.684;2023-05-20T20:10:00;8.70;;;2.80;;
22774;SDS011;11554;51.106;3.684;2023-05-20T20:15:00;8.70;;;2.80;;
22774;SDS011;11554;51.106;3.684;2023-05-20T20:20:00;9.20;;;3.10;;
22774;SDS011;11554;51.106;3.684;2023-05-20T20:25:00;9.20;;;3.10;;
22774;SDS011;11554;51.106;3.684;2023-05-20T20:30:00;8.20;;;2.90;;
22774;SDS011;11554;51.106;3.684;2023-05-20T20:35:00;8.20;;;2.90;;
22774;SDS011;11554;51.106;3.684;2023-05-20T20:40:00;9.70;;;3.30;;
22774;SDS011;11554;51.106;3.684;2023-05-20T20:45:00;9.70;;;3.30;;
22774;SDS011;11554;51.106;3.684;2023-05-20T20:50:00;8.30;;;3.50;;
22774;SDS011;11554;51.106;3.684;2023-05-20T20:55:00;8.30;;;3.50;;
22774;SDS011;11554;51.106;3.684;2023-05-20T21:00:00;6.80;;;3.30;;
22774;SDS011;11554;51.106;3.684;2023-05-20T21:05:00;6.80;;;3.30;;
22774;SDS011;11554;51.106;3.684;2023-05-20T21:10:00;8.30;;;3.20;;
22774;SDS011;11554;51.106;3.684;2023-05-20T21:15:01;8.30;;;3.20;;
22774;SDS011;11554;51.106;3.684;2023-05-20T21:20:00;10.80;;;4.30;;
22774;SDS011;11554;51.106;3.684;2023-05-20T21:25:00;10.80;;;4.30;;
22774;SDS011;11554;51.106;3.684;2023-05-20T21:30:00;6.50;;;3.60;;
22774;SDS011;11554;51.106;3.684;2023-05-20T21:35:00;6.50;;;3.60;;
22774;SDS011;11554;51.106;3.684;2023-05-20T21:40:00;8.50;;;4.40;;
22774;SDS011;11554;51.106;3.684;2023-05-20T21:45:00;8.50;;;4.40;;
22774;SDS011;11554;51.106;3.684;2023-05-20T21:50:00;7.30;;;3.90;;
22774;SDS011;11554;51.106;3.684;2023-05-20T21:55:00;7.30;;;3.90;;
22774;SDS011;11554;51.106;3.684;2023-05-20T22:00:00;8.50;;;4.30;;
22774;SDS011;11554;51.106;3.684;2023-05-20T22:05:00;8.50;;;4.30;;
22774;SDS011;11554;51.106;3.684;2023-05-20T22:10:00;7.20;;;4.30;;
22774;SDS011;11554;51.106;3.684;2023-05-20T22:15:00;7.20;;;4.30;;
22774;SDS011;11554;51.106;3.684;2023-05-20T22:20:01;7.60;;;4.80;;
22774;SDS011;11554;51.106;3.684;2023-05-20T22:25:00;7.60;;;4.80;;
22774;SDS011;11554;51.106;3.684;2023-05-20T22:30:00;9.30;;;5.20;;
22774;SDS011;11554;51.106;3.684;2023-05-20T22:35:00;9.30;;;5.20;;
22774;SDS011;11554;51.106;3.684;2023-05-20T22:40:00;9.50;;;5.50;;
22774;SDS011;11554;51.106;3.684;2023-05-20T22:45:00;9.50;;;5.50;;
22774;SDS011;11554;51.106;3.684;2023-05-20T22:50:00;9.50;;;5.30;;
22774;SDS011;11554;51.106;3.684;2023-05-20T22:55:00;9.50;;;5.30;;
22774;SDS011;11554;51.106;3.684;2023-05-20T23:00:00;10.20;;;5.60;;
22774;SDS011;11554;51.106;3.684;2023-05-20T23:05:00;10.20;;;5.60;;
22774;SDS011;11554;51.106;3.684;2023-05-20T23:10:00;8.90;;;5.40;;
22774;SDS011;11554;51.106;3.684;2023-05-20T23:15:00;8.90;;;5.40;;
22774;SDS011;11554;51.106;3.684;2023-05-20T23:20:00;9.70;;;5.40;;
22774;SDS011;11554;51.106;3.684;2023-05-20T23:25:00;9.70;;;5.40;;
22774;SDS011;11554;51.106;3.684;2023-05-20T23:30:00;13.80;;;5.60;;
22774;SDS011;11554;51.106;3.684;2023-05-20T23:35:00;13.80;;;5.60;;
22774;SDS011;11554;51.106;3.684;2023-05-20T23:40:00;9.20;;;5.60;;
22774;SDS011;11554;51.106;3.684;2023-05-20T23:45:00;9.20;;;5.60;;
22774;SDS011;11554;51.106;3.684;2023-05-20T23:50:00;10.50;;;6.10;;
22774;SDS011;11554;51.106;3.684;2023-05-20T23:55:00;10.50;;;6.10;;
